createdAt,value
2023-04-28T00:00:37.983Z,44.70
2023-04-28T00:03:05.006Z,44.80
2023-04-28T00:05:32.394Z,44.90
2023-04-28T00:07:59.286Z,45.00
2023-04-28T00:10:26.101Z,44.90
2023-04-28T00:12:52.861Z,44.90
2023-04-28T00:15:19.720Z,44.90
2023-04-28T00:17:46.840Z,44.90
2023-04-28T00:20:13.862Z,45.10
2023-04-28T00:22:41.056Z,45.30
2023-04-28T00:25:08.556Z,45.40
2023-04-28T00:27:36.707Z,45.40
2023-04-28T00:30:03.995Z,45.40
2023-04-28T00:32:30.999Z,45.40
2023-04-28T00:34:58.295Z,45.40
2023-04-28T00:37:27.603Z,45.50
2023-04-28T00:39:57.523Z,45.30
2023-04-28T00:42:25.705Z,45.20
2023-04-28T00:44:52.590Z,45.30
2023-04-28T00:47:19.677Z,45.20
2023-04-28T00:49:49.703Z,45.20
2023-04-28T00:52:17.617Z,45.30
2023-04-28T00:54:44.456Z,45.40
2023-04-28T00:57:11.338Z,45.40
2023-04-28T00:59:38.560Z,45.50
2023-04-28T01:02:07.732Z,45.50
2023-04-28T01:04:39.403Z,45.70
2023-04-28T01:07:06.450Z,45.70
2023-04-28T01:09:33.188Z,45.80
2023-04-28T01:12:00.161Z,45.90
2023-04-28T01:14:26.998Z,46.10
2023-04-28T01:16:54.617Z,46.00
2023-04-28T01:19:22.913Z,46.00
2023-04-28T01:21:52.984Z,46.00
2023-04-28T01:24:19.991Z,46.10
2023-04-28T01:26:47.005Z,46.10
2023-04-28T01:29:13.877Z,46.80
2023-04-28T01:31:41.294Z,46.10
2023-04-28T01:34:08.376Z,46.10
2023-04-28T01:36:37.291Z,46.00
2023-04-28T01:39:04.963Z,46.00
2023-04-28T01:41:34.526Z,45.90
2023-04-28T01:44:01.696Z,46.00
2023-04-28T01:46:28.609Z,46.00
2023-04-28T01:48:55.729Z,46.10
2023-04-28T01:51:22.524Z,46.20
2023-04-28T01:53:49.361Z,46.20
2023-04-28T01:56:17.477Z,46.10
2023-04-28T01:58:44.465Z,46.20
2023-04-28T02:01:11.599Z,46.20
2023-04-28T02:03:38.553Z,46.20
2023-04-28T02:06:05.796Z,46.30
2023-04-28T02:08:32.728Z,46.30
2023-04-28T02:11:01.574Z,46.30
2023-04-28T02:13:28.465Z,46.30
2023-04-28T02:15:55.620Z,46.30
2023-04-28T02:18:22.578Z,46.40
2023-04-28T02:20:49.449Z,46.30
2023-04-28T02:23:16.876Z,46.30
2023-04-28T02:25:46.283Z,46.20
2023-04-28T02:28:13.269Z,46.20
2023-04-28T02:30:40.200Z,46.20
2023-04-28T02:33:06.939Z,46.20
2023-04-28T02:35:33.828Z,46.20
2023-04-28T02:38:00.874Z,46.30
2023-04-28T02:40:27.875Z,46.40
2023-04-28T02:42:54.778Z,46.40
2023-04-28T02:45:21.519Z,46.30
2023-04-28T02:47:48.483Z,46.40
2023-04-28T02:50:15.270Z,46.50
2023-04-28T02:52:42.001Z,46.50
2023-04-28T02:55:09.095Z,46.40
2023-04-28T02:57:36.130Z,46.50
2023-04-28T03:00:05.797Z,46.50
2023-04-28T03:02:32.681Z,46.60
2023-04-28T03:04:59.576Z,46.70
2023-04-28T03:07:26.480Z,46.80
2023-04-28T03:09:53.162Z,46.80
2023-04-28T03:12:19.868Z,46.90
2023-04-28T03:14:49.206Z,46.90
2023-04-28T03:17:16.220Z,47.00
2023-04-28T03:19:43.302Z,47.10
2023-04-28T03:22:10.144Z,47.00
2023-04-28T03:24:36.947Z,47.00
2023-04-28T03:27:03.877Z,47.10
2023-04-28T03:29:30.721Z,47.20
2023-04-28T03:31:57.876Z,47.20
2023-04-28T03:34:24.740Z,47.30
2023-04-28T03:36:51.801Z,47.40
2023-04-28T03:39:18.664Z,47.30
2023-04-28T03:41:45.492Z,47.40
2023-04-28T03:44:12.203Z,47.40
2023-04-28T03:46:40.751Z,47.40
2023-04-28T03:49:07.674Z,47.40
2023-04-28T03:51:34.519Z,47.40
2023-04-28T03:54:01.509Z,47.40
2023-04-28T03:56:28.766Z,47.40
2023-04-28T03:58:55.564Z,47.40
2023-04-28T04:01:22.344Z,47.40
2023-04-28T04:03:49.417Z,47.40
2023-04-28T04:06:16.409Z,47.40
2023-04-28T04:08:43.797Z,47.50
2023-04-28T04:11:11.963Z,47.50
2023-04-28T04:13:39.034Z,47.60
2023-04-28T04:16:06.853Z,47.60
2023-04-28T04:18:33.723Z,47.50
2023-04-28T04:21:00.795Z,47.50
2023-04-28T04:23:27.672Z,47.40
2023-04-28T04:25:54.472Z,47.30
2023-04-28T04:28:21.407Z,47.40
2023-04-28T04:30:48.312Z,47.50
2023-04-28T04:33:15.104Z,47.50
2023-04-28T04:35:41.918Z,47.50
2023-04-28T04:38:09.029Z,47.50
2023-04-28T04:40:36.130Z,47.60
2023-04-28T04:43:03.048Z,47.60
2023-04-28T04:45:30.478Z,47.70
2023-04-28T04:47:58.162Z,47.80
2023-04-28T04:50:25.249Z,47.70
2023-04-28T04:52:52.031Z,47.80
2023-04-28T04:55:18.973Z,47.80
2023-04-28T04:57:46.483Z,47.70
2023-04-28T05:00:13.738Z,47.70
2023-04-28T05:02:40.800Z,47.70
2023-04-28T05:05:20.389Z,47.80
2023-04-28T05:07:48.504Z,47.90
2023-04-28T05:10:16.382Z,47.90
2023-04-28T05:12:46.788Z,48.00
2023-04-28T05:15:15.148Z,48.10
2023-04-28T05:17:42.198Z,48.20
2023-04-28T05:20:10.547Z,48.20
2023-04-28T05:22:41.764Z,48.20
2023-04-28T05:25:09.205Z,48.20
2023-04-28T05:27:39.486Z,48.30
2023-04-28T05:30:10.561Z,48.50
2023-04-28T05:32:38.388Z,48.70
2023-04-28T05:35:05.638Z,48.70
2023-04-28T05:37:32.477Z,48.70
2023-04-28T05:40:01.938Z,48.80
2023-04-28T05:42:29.028Z,49.00
2023-04-28T05:44:56.060Z,49.20
2023-04-28T05:47:23.112Z,49.40
2023-04-28T05:49:49.969Z,49.60
2023-04-28T05:52:16.715Z,49.80
2023-04-28T05:54:44.934Z,50.00
2023-04-28T05:57:11.855Z,50.10
2023-04-28T05:59:38.666Z,50.50
2023-04-28T06:02:05.510Z,50.80
2023-04-28T06:04:33.015Z,51.10
2023-04-28T06:07:01.318Z,51.40
2023-04-28T06:09:28.248Z,51.80
2023-04-28T06:11:55.092Z,52.10
2023-04-28T06:14:23.199Z,52.40
2023-04-28T06:16:51.228Z,52.70
2023-04-28T06:19:19.202Z,52.80
2023-04-28T06:21:46.706Z,53.00
2023-04-28T06:24:14.931Z,53.20
2023-04-28T06:26:42.148Z,53.40
2023-04-28T06:29:09.135Z,53.50
2023-04-28T06:31:36.024Z,53.70
2023-04-28T06:34:02.871Z,53.90
2023-04-28T06:36:29.931Z,54.10
2023-04-28T06:38:57.380Z,54.20
2023-04-28T06:41:24.263Z,54.40
2023-04-28T06:43:51.170Z,54.60
2023-04-28T06:46:18.114Z,54.70
2023-04-28T06:48:45.159Z,54.80
2023-04-28T06:51:12.017Z,54.90
2023-04-28T06:53:39.136Z,55.00
2023-04-28T06:56:06.168Z,55.10
2023-04-28T06:58:33.156Z,55.20
2023-04-28T07:01:00.973Z,55.40
2023-04-28T07:03:28.090Z,55.50
2023-04-28T07:05:55.253Z,55.60
2023-04-28T07:08:22.549Z,55.80
2023-04-28T07:10:49.320Z,55.90
2023-04-28T07:13:16.109Z,56.00
2023-04-28T07:15:42.978Z,56.20
2023-04-28T07:18:10.480Z,56.30
2023-04-28T07:20:37.434Z,56.50
2023-04-28T07:23:04.237Z,56.60
2023-04-28T07:25:32.132Z,56.70
2023-04-28T07:27:59.265Z,56.80
2023-04-28T07:30:28.020Z,56.80
2023-04-28T07:32:55.763Z,56.90
2023-04-28T07:35:22.909Z,57.00
2023-04-28T07:37:49.917Z,57.00
2023-04-28T07:40:17.768Z,57.20
2023-04-28T07:42:46.196Z,57.20
2023-04-28T07:45:13.282Z,57.30
2023-04-28T07:47:40.478Z,57.40
2023-04-28T07:50:08.512Z,57.60
2023-04-28T07:52:35.718Z,57.60
2023-04-28T07:55:03.265Z,57.60
2023-04-28T07:57:31.722Z,57.60
2023-04-28T07:59:58.747Z,57.60
2023-04-28T08:02:27.525Z,57.60
2023-04-28T08:04:55.011Z,57.60
2023-04-28T08:07:21.940Z,57.70
2023-04-28T08:09:48.731Z,57.70
2023-04-28T08:12:16.023Z,57.70
2023-04-28T08:14:42.806Z,57.70
2023-04-28T08:17:10.126Z,57.80
2023-04-28T08:19:37.484Z,57.80
2023-04-28T08:22:08.017Z,57.80
2023-04-28T08:24:36.250Z,58.00
2023-04-28T08:27:03.596Z,57.90
2023-04-28T08:29:31.869Z,57.90
2023-04-28T08:31:59.505Z,57.80
2023-04-28T08:34:26.217Z,58.00
2023-04-28T08:36:54.168Z,58.40
2023-04-28T08:39:22.891Z,58.60
2023-04-28T08:41:50.662Z,59.00
2023-04-28T08:44:17.918Z,59.20
2023-04-28T08:46:47.849Z,59.40
2023-04-28T08:49:19.157Z,59.80
2023-04-28T08:52:02.401Z,60.10
2023-04-28T08:54:32.001Z,60.40
2023-04-28T08:56:59.543Z,60.70
2023-04-28T08:59:26.796Z,60.80
2023-04-28T09:01:53.887Z,60.80
2023-04-28T09:04:22.542Z,60.80
2023-04-28T09:06:51.125Z,61.10
2023-04-28T09:09:25.404Z,61.20
2023-04-28T09:11:53.410Z,61.20
2023-04-28T09:14:20.294Z,61.30
2023-04-28T09:16:47.998Z,61.30
2023-04-28T09:19:16.675Z,61.30
2023-04-28T09:21:54.900Z,61.60
2023-04-28T09:24:37.729Z,61.80
2023-04-28T09:27:07.699Z,61.90
2023-04-28T09:29:34.683Z,62.00
2023-04-28T09:32:22.809Z,62.20
2023-04-28T09:34:53.711Z,62.50
2023-04-28T09:37:21.672Z,63.10
2023-04-28T09:39:54.404Z,62.70
2023-04-28T09:42:41.474Z,62.90
2023-04-28T09:45:10.633Z,63.20
2023-04-28T09:47:40.179Z,63.20
2023-04-28T09:50:14.749Z,63.60
2023-04-28T09:52:45.002Z,63.70
2023-04-28T09:55:12.769Z,64.00
2023-04-28T09:57:40.279Z,64.20
2023-04-28T10:00:09.320Z,64.40
2023-04-28T10:05:11.207Z,64.80
2023-04-28T10:07:39.213Z,64.90
2023-04-28T10:10:07.905Z,65.10
2023-04-28T10:12:38.432Z,65.40
2023-04-28T10:15:07.875Z,65.40
2023-04-28T10:17:36.762Z,65.70
2023-04-28T10:20:05.303Z,65.80
2023-04-28T10:22:51.110Z,65.90
2023-04-28T10:25:31.286Z,66.20
2023-04-28T10:27:59.495Z,66.50
2023-04-28T10:30:29.875Z,66.60
2023-04-28T10:33:06.647Z,66.70
2023-04-28T10:35:36.737Z,66.80
2023-04-28T10:38:16.856Z,67.00
2023-04-28T10:40:52.063Z,67.20
2023-04-28T10:43:31.123Z,67.30
2023-04-28T10:46:01.214Z,67.80
2023-04-28T10:48:34.726Z,68.10
2023-04-28T10:51:08.123Z,68.20
2023-04-28T10:53:47.642Z,68.40
2023-04-28T10:56:16.907Z,68.80
2023-04-28T10:58:46.318Z,69.20
2023-04-28T11:01:22.330Z,69.30
2023-04-28T11:03:55.452Z,69.50
2023-04-28T11:06:28.262Z,69.90
2023-04-28T11:09:25.713Z,69.90
2023-04-28T11:12:14.111Z,70.00
2023-04-28T11:14:41.768Z,69.90
2023-04-28T11:17:11.944Z,70.20
2023-04-28T11:19:44.001Z,70.10
2023-04-28T11:22:22.775Z,70.60
2023-04-28T11:25:00.532Z,70.70
2023-04-28T11:27:32.345Z,71.10
2023-04-28T11:30:00.362Z,71.90
2023-04-28T11:32:34.014Z,71.60
2023-04-28T11:35:00.951Z,71.80
2023-04-28T11:37:30.909Z,72.00
2023-04-28T11:39:57.740Z,72.40
2023-04-28T11:42:29.864Z,73.00
2023-04-28T11:44:57.032Z,73.10
2023-04-28T11:47:34.440Z,73.20
2023-04-28T11:50:02.909Z,73.40
2023-04-28T11:52:29.742Z,73.30
2023-04-28T11:54:59.288Z,73.30
2023-04-28T11:57:26.933Z,73.50
2023-04-28T11:59:53.702Z,73.40
2023-04-28T12:02:28.984Z,73.50
2023-04-28T12:04:56.229Z,73.60
2023-04-28T12:07:23.726Z,73.90
2023-04-28T12:10:12.824Z,73.80
2023-04-28T12:12:49.979Z,74.00
2023-04-28T12:15:20.829Z,74.30
2023-04-28T12:17:48.471Z,74.70
2023-04-28T12:20:42.700Z,74.90
2023-04-28T12:23:09.649Z,75.00
2023-04-28T12:25:47.850Z,75.60
2023-04-28T12:28:15.343Z,75.80
2023-04-28T12:30:43.669Z,75.90
2023-04-28T12:33:28.545Z,75.90
2023-04-28T12:35:57.194Z,75.80
2023-04-28T12:38:24.957Z,75.80
2023-04-28T12:40:52.618Z,75.90
2023-04-28T12:43:19.543Z,75.70
2023-04-28T12:45:46.336Z,75.80
2023-04-28T12:48:13.235Z,76.10
2023-04-28T12:50:40.105Z,76.10
2023-04-28T12:53:07.127Z,76.20
2023-04-28T12:55:33.913Z,76.30
2023-04-28T12:58:00.919Z,76.80
2023-04-28T13:00:27.756Z,77.10
2023-04-28T13:02:56.851Z,77.20
2023-04-28T13:05:23.779Z,77.30
2023-04-28T13:07:51.158Z,78.10
2023-04-28T13:10:18.833Z,77.60
2023-04-28T13:12:45.901Z,77.80
2023-04-28T13:15:12.728Z,78.00
2023-04-28T13:17:39.888Z,78.10
2023-04-28T13:20:08.646Z,78.20
2023-04-28T13:22:35.899Z,78.40
2023-04-28T13:25:02.791Z,78.70
2023-04-28T13:27:30.613Z,78.80
2023-04-28T13:29:59.260Z,79.00
2023-04-28T13:32:26.133Z,79.10
2023-04-28T13:34:54.627Z,79.10
2023-04-28T13:37:21.766Z,79.10
2023-04-28T13:39:48.511Z,79.20
2023-04-28T13:42:16.183Z,79.40
2023-04-28T13:44:43.149Z,79.60
2023-04-28T13:47:11.200Z,79.60
2023-04-28T13:49:39.597Z,79.80
2023-04-28T13:52:06.719Z,79.90
2023-04-28T13:54:33.519Z,80.20
2023-04-28T13:57:00.391Z,80.50
2023-04-28T13:59:27.349Z,80.50
2023-04-28T14:01:54.078Z,80.50
2023-04-28T14:04:31.365Z,80.80
2023-04-28T14:06:58.517Z,81.30
2023-04-28T14:09:25.312Z,81.60
2023-04-28T14:11:52.506Z,81.90
2023-04-28T14:14:21.707Z,82.00
2023-04-28T14:16:48.904Z,82.30
2023-04-28T14:19:18.083Z,82.60
2023-04-28T14:21:44.900Z,82.50
2023-04-28T14:24:11.767Z,82.80
2023-04-28T14:26:38.689Z,82.90
2023-04-28T14:29:05.784Z,83.10
2023-04-28T14:31:34.209Z,83.30
2023-04-28T14:34:03.161Z,83.50
2023-04-28T14:36:33.132Z,83.60
2023-04-28T14:39:00.652Z,83.70
2023-04-28T14:41:27.580Z,83.80
2023-04-28T14:44:00.673Z,83.90
2023-04-28T14:46:28.583Z,84.80
2023-04-28T14:48:56.501Z,84.40
2023-04-28T14:51:23.345Z,84.60
2023-04-28T14:53:50.907Z,84.60
2023-04-28T14:56:19.705Z,84.60
2023-04-28T14:58:50.806Z,84.80
2023-04-28T15:01:18.480Z,84.90
2023-04-28T15:03:47.634Z,85.10
2023-04-28T15:06:14.591Z,85.20
2023-04-28T15:08:41.840Z,85.50
2023-04-28T15:11:08.641Z,85.60
2023-04-28T15:13:35.905Z,85.80
2023-04-28T15:16:03.158Z,85.90
2023-04-28T15:18:30.115Z,86.10
2023-04-28T15:20:57.138Z,86.20
2023-04-28T15:23:23.982Z,86.60
2023-04-28T15:25:53.715Z,86.90
2023-04-28T15:28:20.835Z,87.20
2023-04-28T15:30:47.631Z,87.40
2023-04-28T15:33:17.366Z,87.60
2023-04-28T15:35:45.113Z,87.70
2023-04-28T15:38:12.542Z,88.00
2023-04-28T15:40:40.589Z,88.10
2023-04-28T15:43:07.935Z,88.30
2023-04-28T15:45:35.073Z,88.40
2023-04-28T15:48:02.576Z,88.70
2023-04-28T15:50:29.434Z,88.80
2023-04-28T15:52:56.380Z,88.80
2023-04-28T15:55:25.072Z,88.70
2023-04-28T15:57:55.037Z,89.00
2023-04-28T16:00:22.041Z,89.10
2023-04-28T16:02:49.345Z,89.00
2023-04-28T16:05:16.675Z,89.20
2023-04-28T16:07:43.851Z,89.40
2023-04-28T16:10:12.910Z,89.90
2023-04-28T16:12:41.140Z,89.80
2023-04-28T16:15:11.564Z,89.90
2023-04-28T16:17:39.295Z,90.00
2023-04-28T16:20:11.210Z,90.00
2023-04-28T16:22:40.845Z,90.00
2023-04-28T16:25:09.196Z,90.10
2023-04-28T16:27:37.226Z,90.10
2023-04-28T16:30:07.657Z,90.20
2023-04-28T16:32:38.706Z,90.20
2023-04-28T16:35:06.484Z,90.30
2023-04-28T16:37:33.539Z,90.30
2023-04-28T16:40:00.669Z,90.30
2023-04-28T16:42:27.314Z,90.20
2023-04-28T16:44:54.182Z,90.30
2023-04-28T16:47:21.678Z,90.20
2023-04-28T16:49:48.972Z,90.40
2023-04-28T16:52:16.987Z,90.50
2023-04-28T16:54:44.114Z,90.60
2023-04-28T16:57:11.083Z,90.50
2023-04-28T16:59:38.107Z,90.60
2023-04-28T17:02:04.994Z,90.60
2023-04-28T17:04:32.353Z,90.70
2023-04-28T17:06:59.565Z,90.70
2023-04-28T17:09:30.028Z,90.80
2023-04-28T17:11:56.809Z,90.70
2023-04-28T17:14:23.671Z,90.90
2023-04-28T17:16:50.434Z,90.90
2023-04-28T17:19:17.153Z,91.00
2023-04-28T17:21:44.130Z,91.10
2023-04-28T17:24:11.113Z,91.10
2023-04-28T17:26:38.103Z,91.20
2023-04-28T17:29:05.148Z,91.20
2023-04-28T17:31:32.240Z,91.20
2023-04-28T17:34:04.202Z,91.40
2023-04-28T17:36:33.402Z,91.40
2023-04-28T17:39:00.700Z,91.40
2023-04-28T17:41:27.437Z,91.40
2023-04-28T17:43:54.305Z,91.30
2023-04-28T17:46:21.957Z,91.20
2023-04-28T17:48:49.439Z,91.10
2023-04-28T17:51:16.233Z,91.20
2023-04-28T17:53:43.223Z,91.10
2023-04-28T17:56:10.085Z,91.10
2023-04-28T17:58:37.404Z,91.10
2023-04-28T18:01:08.542Z,91.00
2023-04-28T18:03:36.682Z,91.00
2023-04-28T18:06:06.120Z,91.00
2023-04-28T18:08:35.233Z,91.00
2023-04-28T18:11:02.780Z,91.10
2023-04-28T18:13:29.763Z,91.00
2023-04-28T18:15:56.622Z,91.00
2023-04-28T18:18:23.489Z,91.00
2023-04-28T18:20:56.529Z,91.00
2023-04-28T18:23:23.574Z,90.90
2023-04-28T18:25:50.254Z,90.90
2023-04-28T18:28:17.417Z,91.00
2023-04-28T18:30:44.212Z,91.00
2023-04-28T18:33:11.040Z,91.00
2023-04-28T18:35:37.973Z,91.20
2023-04-28T18:38:05.931Z,91.10
2023-04-28T18:40:34.555Z,91.00
2023-04-28T18:43:02.335Z,91.10
2023-04-28T18:45:32.260Z,91.10
2023-04-28T18:47:59.334Z,91.10
2023-04-28T18:50:26.922Z,91.10
2023-04-28T18:52:54.029Z,91.00
2023-04-28T18:55:23.441Z,90.90
2023-04-28T18:57:51.981Z,90.90
2023-04-28T19:00:19.077Z,91.00
2023-04-28T19:02:46.274Z,91.00
2023-04-28T19:05:13.577Z,91.00
2023-04-28T19:07:44.411Z,91.00
2023-04-28T19:10:12.301Z,91.00
2023-04-28T19:12:39.081Z,91.00
2023-04-28T19:15:06.272Z,91.00
2023-04-28T19:17:33.172Z,91.00
2023-04-28T19:20:00.279Z,91.00
2023-04-28T19:22:40.480Z,91.00
2023-04-28T19:25:08.807Z,91.00
2023-04-28T19:27:38.350Z,91.00
2023-04-28T19:30:07.630Z,90.90
2023-04-28T19:32:35.125Z,90.90
2023-04-28T19:35:04.417Z,90.90
2023-04-28T19:37:33.749Z,91.00
2023-04-28T19:40:00.563Z,90.90
2023-04-28T19:42:27.714Z,91.20
2023-04-28T19:44:58.615Z,90.90
2023-04-28T19:47:27.028Z,90.90
2023-04-28T19:49:54.614Z,90.90
2023-04-28T19:52:22.321Z,90.80
2023-04-28T19:54:50.154Z,90.80
2023-04-28T19:57:18.918Z,90.80
2023-04-28T19:59:47.403Z,90.80
2023-04-28T20:02:14.843Z,90.80
2023-04-28T20:04:42.146Z,91.00
2023-04-28T20:07:09.618Z,90.80
2023-04-28T20:09:37.909Z,90.80
2023-04-28T20:12:05.988Z,90.80
2023-04-28T20:14:33.392Z,91.00
2023-04-28T20:17:02.046Z,90.70
2023-04-28T20:19:28.989Z,90.70
2023-04-28T20:21:56.087Z,90.80
2023-04-28T20:24:23.288Z,90.80
2023-04-28T20:26:51.057Z,90.70
2023-04-28T20:29:17.959Z,90.60
2023-04-28T20:31:44.858Z,90.70
2023-04-28T20:34:13.332Z,90.70
2023-04-28T20:36:42.644Z,90.70
2023-04-28T20:39:11.348Z,90.60
2023-04-28T20:41:40.999Z,90.60
2023-04-28T20:44:08.478Z,90.60
2023-04-28T20:46:35.694Z,90.60
2023-04-28T20:49:06.482Z,90.60
2023-04-28T20:51:34.210Z,90.50
2023-04-28T20:54:03.996Z,90.50
2023-04-28T20:56:31.347Z,90.60
2023-04-28T20:58:58.089Z,90.50
2023-04-28T21:01:25.150Z,90.50
2023-04-28T21:03:52.068Z,90.60
2023-04-28T21:06:19.344Z,90.50
2023-04-28T21:08:47.173Z,90.50
2023-04-28T21:11:15.165Z,90.40
2023-04-28T21:13:43.457Z,90.40
2023-04-28T21:16:20.959Z,90.40
2023-04-28T21:18:48.477Z,90.50
2023-04-28T21:21:15.391Z,90.50
2023-04-28T21:23:43.406Z,90.40
2023-04-28T21:26:10.412Z,90.40
2023-04-28T21:28:37.697Z,90.30
2023-04-28T21:31:05.156Z,90.40
2023-04-28T21:33:32.351Z,90.40
2023-04-28T21:36:05.120Z,90.30
2023-04-28T21:38:31.955Z,90.30
2023-04-28T21:40:58.808Z,90.30
2023-04-28T21:43:25.728Z,90.30
2023-04-28T21:45:53.067Z,90.30
2023-04-28T21:48:20.039Z,90.30
2023-04-28T21:50:47.643Z,90.20
2023-04-28T21:53:14.508Z,90.20
2023-04-28T21:55:41.449Z,90.20
2023-04-28T21:58:15.042Z,90.20
2023-04-28T22:00:45.059Z,90.10
2023-04-28T22:03:16.404Z,90.00
2023-04-28T22:05:45.231Z,90.10
2023-04-28T22:08:17.289Z,90.10
2023-04-28T22:10:45.591Z,90.10
2023-04-28T22:13:13.293Z,90.10
2023-04-28T22:15:40.228Z,90.10
2023-04-28T22:18:08.270Z,90.00
2023-04-28T22:20:35.771Z,90.00
2023-04-28T22:23:02.577Z,90.00
2023-04-28T22:25:29.376Z,90.00
2023-04-28T22:27:56.343Z,90.00
2023-04-28T22:30:25.788Z,89.90
2023-04-28T22:32:53.557Z,89.90
2023-04-28T22:35:20.339Z,89.90
2023-04-28T22:37:47.270Z,89.70
2023-04-28T22:40:14.093Z,89.60
2023-04-28T22:42:42.543Z,89.40
2023-04-28T22:45:10.918Z,89.40
2023-04-28T22:47:40.694Z,89.30
2023-04-28T22:50:11.698Z,89.30
2023-04-28T22:52:38.649Z,89.20
2023-04-28T22:55:06.495Z,89.20
2023-04-28T22:57:33.520Z,89.20
2023-04-28T23:00:00.725Z,89.30
2023-04-28T23:02:28.006Z,89.40
2023-04-28T23:04:54.976Z,89.40
2023-04-28T23:07:21.979Z,89.30
2023-04-28T23:09:48.958Z,89.20
2023-04-28T23:12:16.361Z,89.10
2023-04-28T23:14:43.181Z,89.00
2023-04-28T23:17:10.071Z,88.80
2023-04-28T23:19:39.273Z,88.80
2023-04-28T23:22:07.432Z,88.90
2023-04-28T23:24:36.823Z,88.90
2023-04-28T23:27:04.246Z,88.80
2023-04-28T23:29:31.934Z,88.80
2023-04-28T23:31:58.963Z,88.80
2023-04-28T23:34:28.480Z,88.70
2023-04-28T23:36:55.378Z,88.60
2023-04-28T23:39:22.285Z,88.70
2023-04-28T23:41:49.250Z,88.70
2023-04-28T23:44:18.172Z,88.90
2023-04-28T23:46:45.161Z,88.90
2023-04-28T23:49:12.765Z,88.90
2023-04-28T23:51:41.056Z,89.40
2023-04-28T23:54:09.662Z,88.80
2023-04-28T23:56:37.817Z,89.00
2023-04-28T23:59:05.379Z,88.90
